createdAt,value
2022-10-11T00:00:53.500Z,16.78
2022-10-11T00:01:53.659Z,16.75
2022-10-11T00:02:53.960Z,16.74
2022-10-11T00:03:54.279Z,16.73
2022-10-11T00:04:54.450Z,16.74
2022-10-11T00:05:54.759Z,16.71
2022-10-11T00:06:54.977Z,16.73
2022-10-11T00:07:55.345Z,16.70
2022-10-11T00:08:55.659Z,16.68
2022-10-11T00:10:02.847Z,16.68
2022-10-11T00:10:56.230Z,16.70
2022-10-11T00:11:56.476Z,16.70
2022-10-11T00:12:56.787Z,16.68
2022-10-11T00:13:57.032Z,16.68
2022-10-11T00:14:57.336Z,16.63
2022-10-11T00:15:57.700Z,16.65
2022-10-11T00:16:58.069Z,16.67
2022-10-11T00:18:02.143Z,16.71
2022-10-11T00:18:59.623Z,16.65
2022-10-11T00:19:58.937Z,16.60
2022-10-11T00:20:59.222Z,16.59
2022-10-11T00:21:59.578Z,16.59
2022-10-11T00:22:59.867Z,16.56
2022-10-11T00:24:00.091Z,16.53
2022-10-11T00:25:00.390Z,16.55
2022-10-11T00:26:00.764Z,16.56
2022-10-11T00:27:01.030Z,16.55
2022-10-11T00:28:01.285Z,16.52
2022-10-11T00:29:01.589Z,16.50
2022-10-11T00:30:01.942Z,16.48
2022-10-11T00:31:02.465Z,16.48
2022-10-11T00:32:02.388Z,16.49
2022-10-11T00:33:02.708Z,16.48
2022-10-11T00:34:02.951Z,16.52
2022-10-11T00:35:03.271Z,16.49
2022-10-11T00:36:03.924Z,16.50
2022-10-11T00:37:03.891Z,16.48
2022-10-11T00:38:04.160Z,16.48
2022-10-11T00:39:04.413Z,16.44
2022-10-11T00:40:04.729Z,16.42
2022-10-11T00:41:05.018Z,16.42
2022-10-11T00:42:05.327Z,16.44
2022-10-11T00:43:05.582Z,16.44
2022-10-11T00:44:06.265Z,16.45
2022-10-11T00:45:06.162Z,16.42
2022-10-11T00:46:06.911Z,16.42
2022-10-11T00:47:06.665Z,16.41
2022-10-11T00:48:06.973Z,16.45
2022-10-11T00:49:07.186Z,16.45
2022-10-11T00:50:07.417Z,16.45
2022-10-11T00:51:08.251Z,16.49
2022-10-11T00:52:08.026Z,16.49
2022-10-11T00:53:08.409Z,16.48
2022-10-11T00:54:08.558Z,16.48
2022-10-11T00:55:08.872Z,16.48
2022-10-11T00:56:09.615Z,16.49
2022-10-11T00:57:09.666Z,16.50
2022-10-11T00:58:09.677Z,16.45
2022-10-11T00:59:10.091Z,16.48
2022-10-11T01:00:10.738Z,16.49
2022-10-11T01:01:10.700Z,16.52
2022-10-11T01:02:10.870Z,16.45
2022-10-11T01:03:11.181Z,16.38
2022-10-11T01:04:11.377Z,16.38
2022-10-11T01:05:28.710Z,16.33
2022-10-11T01:06:12.938Z,16.27
2022-10-11T01:07:12.224Z,16.26
2022-10-11T01:08:12.436Z,16.23
2022-10-11T01:09:12.803Z,16.26
2022-10-11T01:10:13.151Z,16.25
2022-10-11T01:11:13.491Z,16.25
2022-10-11T01:12:13.793Z,16.22
2022-10-11T01:13:14.103Z,16.23
2022-10-11T01:14:14.374Z,16.22
2022-10-11T01:15:14.786Z,16.20
2022-10-11T01:16:14.948Z,16.16
2022-10-11T01:17:15.205Z,16.14
2022-10-11T01:18:15.454Z,16.14
2022-10-11T01:19:15.800Z,16.15
2022-10-11T01:20:16.004Z,16.11
2022-10-11T01:21:16.306Z,16.11
2022-10-11T01:22:16.498Z,16.11
2022-10-11T01:23:16.786Z,16.09
2022-10-11T01:24:17.065Z,16.11
2022-10-11T01:25:17.397Z,16.09
2022-10-11T01:26:17.665Z,16.11
2022-10-11T01:27:17.996Z,16.09
2022-10-11T01:28:18.281Z,16.06
2022-10-11T01:29:18.480Z,16.03
2022-10-11T01:30:18.741Z,15.99
2022-10-11T01:31:19.091Z,16.01
2022-10-11T01:32:19.386Z,16.00
2022-10-11T01:33:19.605Z,15.99
2022-10-11T01:34:19.885Z,15.97
2022-10-11T01:35:20.205Z,15.97
2022-10-11T01:36:20.595Z,16.00
2022-10-11T01:37:20.763Z,15.99
2022-10-11T01:38:21.081Z,15.96
2022-10-11T01:39:21.418Z,15.96
2022-10-11T01:40:21.746Z,15.94
2022-10-11T01:41:21.997Z,15.92
2022-10-11T01:42:22.199Z,15.92
2022-10-11T01:43:22.425Z,15.88
2022-10-11T01:44:22.758Z,15.89
2022-10-11T01:45:23.018Z,15.94
2022-10-11T01:46:23.238Z,15.99
2022-10-11T01:47:23.535Z,15.96
2022-10-11T01:48:23.764Z,15.92
2022-10-11T01:49:24.014Z,15.92
2022-10-11T01:50:24.242Z,15.93
2022-10-11T01:51:24.580Z,15.89
2022-10-11T01:52:24.835Z,15.84
2022-10-11T01:53:25.189Z,15.79
2022-10-11T01:54:25.408Z,15.81
2022-10-11T01:55:25.708Z,15.75
2022-10-11T01:56:26.003Z,15.76
2022-10-11T01:57:26.316Z,15.76
2022-10-11T01:58:26.597Z,15.74
2022-10-11T01:59:26.958Z,15.76
2022-10-11T02:00:27.227Z,15.76
2022-10-11T02:01:27.589Z,15.75
2022-10-11T02:02:27.824Z,15.76
2022-10-11T02:03:28.071Z,15.76
2022-10-11T02:04:28.384Z,15.78
2022-10-11T02:05:28.665Z,15.79
2022-10-11T02:06:28.897Z,15.81
2022-10-11T02:07:29.109Z,15.82
2022-10-11T02:08:29.339Z,15.76
2022-10-11T02:09:29.635Z,15.78
2022-10-11T02:10:29.878Z,15.74
2022-10-11T02:11:30.206Z,15.68
2022-10-11T02:12:30.443Z,15.66
2022-10-11T02:13:30.751Z,15.66
2022-10-11T02:14:30.971Z,15.66
2022-10-11T02:15:31.204Z,15.63
2022-10-11T02:16:31.598Z,15.61
2022-10-11T02:17:31.944Z,15.61
2022-10-11T02:18:32.084Z,15.57
2022-10-11T02:19:32.413Z,15.57
2022-10-11T02:20:32.699Z,15.56
2022-10-11T02:21:32.958Z,15.57
2022-10-11T02:22:33.207Z,15.57
2022-10-11T02:23:33.475Z,15.54
2022-10-11T02:24:33.787Z,15.52
2022-10-11T02:25:34.020Z,15.49
2022-10-11T02:26:34.298Z,15.49
2022-10-11T02:27:34.636Z,15.46
2022-10-11T02:28:34.888Z,15.46
2022-10-11T02:29:35.207Z,15.45
2022-10-11T02:30:35.495Z,15.46
2022-10-11T02:31:35.705Z,15.46
2022-10-11T02:32:35.987Z,15.45
2022-10-11T02:33:36.205Z,15.46
2022-10-11T02:34:36.521Z,15.43
2022-10-11T02:35:36.845Z,15.43
2022-10-11T02:36:37.186Z,15.41
2022-10-11T02:37:37.469Z,15.41
2022-10-11T02:38:37.834Z,15.36
2022-10-11T02:39:38.154Z,15.35
2022-10-11T02:40:38.444Z,15.33
2022-10-11T02:41:38.702Z,15.30
2022-10-11T02:42:39.020Z,15.28
2022-10-11T02:43:39.304Z,15.27
2022-10-11T02:44:39.720Z,15.30
2022-10-11T02:45:39.897Z,15.27
2022-10-11T02:46:40.240Z,15.24
2022-10-11T02:47:40.566Z,15.20
2022-10-11T02:48:40.901Z,15.19
2022-10-11T02:49:41.246Z,15.17
2022-10-11T02:50:41.533Z,15.17
2022-10-11T02:51:41.744Z,15.17
2022-10-11T02:52:41.996Z,15.11
2022-10-11T02:53:42.603Z,15.08
2022-10-11T02:54:42.680Z,15.08
2022-10-11T02:55:42.947Z,15.09
2022-10-11T02:56:43.308Z,15.09
2022-10-11T02:57:43.577Z,15.09
2022-10-11T02:58:43.967Z,15.09
2022-10-11T02:59:44.229Z,15.09
2022-10-11T03:00:44.469Z,15.06
2022-10-11T03:01:45.205Z,15.03
2022-10-11T03:02:45.048Z,15.01
2022-10-11T03:03:45.359Z,14.99
2022-10-11T03:04:45.659Z,14.95
2022-10-11T03:05:46.019Z,14.91
2022-10-11T03:06:46.254Z,14.91
2022-10-11T03:07:46.469Z,14.91
2022-10-11T03:08:46.823Z,14.87
2022-10-11T03:09:47.078Z,14.90
2022-10-11T03:10:47.332Z,14.90
2022-10-11T03:11:47.583Z,14.84
2022-10-11T03:12:47.937Z,14.81
2022-10-11T03:13:48.171Z,14.81
2022-10-11T03:14:48.470Z,14.81
2022-10-11T03:15:49.442Z,14.81
2022-10-11T03:16:51.595Z,14.84
2022-10-11T03:17:49.382Z,14.83
2022-10-11T03:18:49.793Z,14.84
2022-10-11T03:19:50.422Z,14.86
2022-10-11T03:20:50.406Z,14.83
2022-10-11T03:21:50.725Z,14.83
2022-10-11T03:22:50.991Z,14.81
2022-10-11T03:23:51.142Z,14.78
2022-10-11T03:24:51.439Z,14.74
2022-10-11T03:25:51.849Z,14.72
2022-10-11T03:26:52.046Z,14.72
2022-10-11T03:27:52.349Z,14.69
2022-10-11T03:28:52.644Z,14.67
2022-10-11T03:29:52.805Z,14.68
2022-10-11T03:30:53.541Z,14.65
2022-10-11T03:31:53.425Z,14.64
2022-10-11T03:32:53.655Z,14.65
2022-10-11T03:33:54.001Z,14.65
2022-10-11T03:34:54.285Z,14.65
2022-10-11T03:35:54.620Z,14.67
2022-10-11T03:36:54.933Z,14.61
2022-10-11T03:37:55.126Z,14.64
2022-10-11T03:38:55.467Z,14.62
2022-10-11T03:39:55.662Z,14.65
2022-10-11T03:40:56.001Z,14.67
2022-10-11T03:41:56.305Z,14.67
2022-10-11T03:42:56.655Z,14.64
2022-10-11T03:43:56.893Z,14.65
2022-10-11T03:44:57.154Z,14.65
2022-10-11T03:45:57.471Z,14.61
2022-10-11T03:46:57.700Z,14.60
2022-10-11T03:47:58.017Z,14.57
2022-10-11T03:48:58.290Z,14.57
2022-10-11T03:49:58.614Z,14.54
2022-10-11T03:50:58.860Z,14.50
2022-10-11T03:51:59.144Z,14.49
2022-10-11T03:52:59.366Z,14.49
2022-10-11T03:53:59.596Z,14.47
2022-10-11T03:54:59.974Z,14.46
2022-10-11T03:56:03.401Z,14.46
2022-10-11T03:57:01.542Z,14.47
2022-10-11T03:58:00.907Z,14.50
2022-10-11T03:59:01.609Z,14.46
2022-10-11T04:00:01.458Z,14.47
2022-10-11T04:01:01.794Z,14.43
2022-10-11T04:02:02.140Z,14.42
2022-10-11T04:03:02.261Z,14.42
2022-10-11T04:04:02.548Z,14.43
2022-10-11T04:05:02.915Z,14.42
2022-10-11T04:06:03.728Z,14.42
2022-10-11T04:07:03.495Z,14.39
2022-10-11T04:08:06.346Z,14.37
2022-10-11T04:09:05.170Z,14.37
2022-10-11T04:10:04.475Z,14.38
2022-10-11T04:11:04.772Z,14.28
2022-10-11T04:12:05.009Z,14.31
2022-10-11T04:13:05.297Z,14.31
2022-10-11T04:14:05.570Z,14.32
2022-10-11T04:15:05.846Z,14.32
2022-10-11T04:16:06.602Z,14.31
2022-10-11T04:17:06.389Z,14.31
2022-10-11T04:18:06.640Z,14.29
2022-10-11T04:19:06.892Z,14.28
2022-10-11T04:20:07.217Z,14.27
2022-10-11T04:21:07.457Z,14.27
2022-10-11T04:22:07.679Z,14.19
2022-10-11T04:23:08.031Z,14.14
2022-10-11T04:24:08.343Z,14.10
2022-10-11T04:25:08.631Z,14.07
2022-10-11T04:26:09.175Z,14.06
2022-10-11T04:27:09.291Z,14.06
2022-10-11T04:28:09.689Z,14.01
2022-10-11T04:29:09.893Z,13.98
2022-10-11T04:30:10.326Z,13.98
2022-10-11T04:31:10.554Z,13.94
2022-10-11T04:32:10.856Z,13.89
2022-10-11T04:33:11.083Z,13.88
2022-10-11T04:34:11.421Z,13.88
2022-10-11T04:35:11.660Z,13.81
2022-10-11T04:36:12.076Z,13.79
2022-10-11T04:37:12.307Z,13.79
2022-10-11T04:38:12.563Z,13.74
2022-10-11T04:39:12.825Z,13.73
2022-10-11T04:40:13.134Z,13.74
2022-10-11T04:41:13.448Z,13.73
2022-10-11T04:42:13.850Z,13.70
2022-10-11T04:43:14.112Z,13.67
2022-10-11T04:44:14.406Z,13.61
2022-10-11T04:45:14.600Z,13.59
2022-10-11T04:46:15.420Z,13.61
2022-10-11T04:47:15.127Z,13.59
2022-10-11T04:48:15.375Z,13.59
2022-10-11T04:49:15.676Z,13.55
2022-10-11T04:50:15.992Z,13.51
2022-10-11T04:51:16.354Z,13.49
2022-10-11T04:52:16.575Z,13.46
2022-10-11T04:53:16.939Z,13.41
2022-10-11T04:54:17.306Z,13.41
2022-10-11T04:55:17.588Z,13.44
2022-10-11T04:56:17.770Z,13.41
2022-10-11T04:57:18.089Z,13.37
2022-10-11T04:58:18.478Z,13.38
2022-10-11T04:59:18.718Z,13.36
2022-10-11T05:00:19.024Z,13.30
2022-10-11T05:01:19.294Z,13.27
2022-10-11T05:02:19.796Z,13.25
2022-10-11T05:03:20.159Z,13.29
2022-10-11T05:04:20.265Z,13.24
2022-10-11T05:05:20.601Z,13.29
2022-10-11T05:06:20.909Z,13.24
2022-10-11T05:07:21.359Z,13.20
2022-10-11T05:08:21.429Z,13.15
2022-10-11T05:09:21.702Z,13.18
2022-10-11T05:10:21.988Z,13.14
2022-10-11T05:11:22.337Z,13.12
2022-10-11T05:12:22.664Z,13.12
2022-10-11T05:13:22.907Z,13.12
2022-10-11T05:14:23.354Z,13.11
2022-10-11T05:15:23.479Z,13.09
2022-10-11T05:16:23.819Z,13.09
2022-10-11T05:17:24.190Z,13.11
2022-10-11T05:18:25.362Z,13.09
2022-10-11T05:19:24.829Z,13.12
2022-10-11T05:20:25.083Z,13.09
2022-10-11T05:21:26.295Z,13.03
2022-10-11T05:22:25.748Z,13.00
2022-10-11T05:23:26.020Z,12.93
2022-10-11T05:24:26.214Z,12.97
2022-10-11T05:25:26.466Z,12.93
2022-10-11T05:26:26.896Z,12.95
2022-10-11T05:27:27.097Z,12.95
2022-10-11T05:28:27.344Z,12.99
2022-10-11T05:29:27.592Z,12.96
2022-10-11T05:30:27.817Z,12.93
2022-10-11T05:31:28.027Z,12.89
2022-10-11T05:32:32.239Z,12.88
2022-10-11T05:33:28.679Z,12.87
2022-10-11T05:34:28.852Z,12.89
2022-10-11T05:35:29.544Z,12.87
2022-10-11T05:36:29.491Z,12.84
2022-10-11T05:37:29.741Z,12.82
2022-10-11T05:38:33.857Z,12.81
2022-10-11T05:39:30.290Z,12.85
2022-10-11T05:40:30.539Z,12.88
2022-10-11T05:41:30.850Z,12.88
2022-10-11T05:42:31.139Z,12.87
2022-10-11T05:43:31.380Z,12.82
2022-10-11T05:44:31.609Z,12.82
2022-10-11T05:45:33.556Z,12.81
2022-10-11T05:46:32.100Z,12.81
2022-10-11T05:47:32.402Z,12.77
2022-10-11T05:48:32.663Z,12.71
2022-10-11T05:49:32.929Z,12.74
2022-10-11T05:50:33.157Z,12.71
2022-10-11T05:51:33.571Z,12.71
2022-10-11T05:52:33.776Z,12.71
2022-10-11T05:53:34.040Z,12.70
2022-10-11T05:54:34.406Z,12.70
2022-10-11T05:55:34.691Z,12.70
2022-10-11T05:56:34.919Z,12.69
2022-10-11T05:57:35.170Z,12.62
2022-10-11T05:58:35.437Z,12.64
2022-10-11T05:59:35.689Z,12.63
2022-10-11T06:00:35.980Z,12.60
2022-10-11T06:01:36.270Z,12.59
2022-10-11T06:02:36.581Z,12.56
2022-10-11T06:03:36.828Z,12.56
2022-10-11T06:04:37.098Z,12.57
2022-10-11T06:05:37.865Z,12.52
2022-10-11T06:06:37.654Z,12.51
2022-10-11T06:07:38.827Z,12.49
2022-10-11T06:08:38.211Z,12.46
2022-10-11T06:09:38.479Z,12.46
2022-10-11T06:10:38.751Z,12.49
2022-10-11T06:11:39.007Z,12.46
2022-10-11T06:12:39.272Z,12.49
2022-10-11T06:13:39.532Z,12.48
2022-10-11T06:14:39.827Z,12.46
2022-10-11T06:15:40.070Z,12.46
2022-10-11T06:16:40.319Z,12.44
2022-10-11T06:17:40.556Z,12.44
2022-10-11T06:18:40.860Z,12.48
2022-10-11T06:19:41.112Z,12.48
2022-10-11T06:20:41.340Z,12.49
2022-10-11T06:21:41.556Z,12.51
2022-10-11T06:22:41.833Z,12.48
2022-10-11T06:23:42.045Z,12.49
2022-10-11T06:24:42.333Z,12.45
2022-10-11T06:25:42.593Z,12.48
2022-10-11T06:26:42.915Z,12.51
2022-10-11T06:27:43.238Z,12.52
2022-10-11T06:28:43.449Z,12.54
2022-10-11T06:29:43.687Z,12.59
2022-10-11T06:30:44.010Z,12.59
2022-10-11T06:31:44.270Z,12.60
2022-10-11T06:32:44.469Z,12.63
2022-10-11T06:33:44.808Z,12.60
2022-10-11T06:34:45.013Z,12.60
2022-10-11T06:35:45.269Z,12.60
2022-10-11T06:36:45.576Z,12.59
2022-10-11T06:37:45.799Z,12.63
2022-10-11T06:38:46.058Z,12.62
2022-10-11T06:39:46.501Z,12.57
2022-10-11T06:40:46.557Z,12.62
2022-10-11T06:41:46.863Z,12.63
2022-10-11T06:42:47.110Z,12.64
2022-10-11T06:43:47.349Z,12.63
2022-10-11T06:44:47.629Z,12.63
2022-10-11T06:45:47.853Z,12.62
2022-10-11T06:46:48.145Z,12.62
2022-10-11T06:47:48.451Z,12.62
2022-10-11T06:48:48.689Z,12.63
2022-10-11T06:49:48.901Z,12.63
2022-10-11T06:50:59.491Z,12.62
2022-10-11T06:51:50.460Z,12.64
2022-10-11T06:52:49.713Z,12.67
2022-10-11T06:53:49.955Z,12.67
2022-10-11T06:54:50.304Z,12.64
2022-10-11T06:55:50.538Z,12.63
2022-10-11T06:56:50.823Z,12.64
2022-10-11T06:57:51.031Z,12.64
2022-10-11T06:58:51.312Z,12.64
2022-10-11T06:59:51.585Z,12.70
2022-10-11T07:00:51.906Z,12.71
2022-10-11T07:01:52.268Z,12.75
2022-10-11T07:02:52.502Z,12.74
2022-10-11T07:03:52.780Z,12.75
2022-10-11T07:04:53.001Z,12.77
2022-10-11T07:05:53.260Z,12.77
2022-10-11T07:06:53.567Z,12.78
2022-10-11T07:07:53.786Z,12.77
2022-10-11T07:08:54.062Z,12.81
2022-10-11T07:09:54.316Z,12.82
2022-10-11T07:10:54.580Z,12.87
2022-10-11T07:11:54.871Z,12.92
2022-10-11T07:12:55.133Z,12.95
2022-10-11T07:13:55.406Z,13.02
2022-10-11T07:14:55.684Z,13.03
2022-10-11T07:15:55.958Z,13.04
2022-10-11T07:16:56.196Z,13.06
2022-10-11T07:17:56.473Z,13.04
2022-10-11T07:19:00.570Z,13.06
2022-10-11T07:19:57.935Z,13.12
2022-10-11T07:20:57.374Z,13.06
2022-10-11T07:21:57.722Z,13.11
2022-10-11T07:22:57.940Z,13.15
2022-10-11T07:23:58.429Z,13.20
2022-10-11T07:24:58.518Z,13.24
2022-10-11T07:25:58.864Z,13.27
2022-10-11T07:26:59.127Z,13.29
2022-10-11T07:27:59.385Z,13.25
2022-10-11T07:28:59.682Z,13.24
2022-10-11T07:29:59.911Z,13.36
2022-10-11T07:31:00.197Z,13.37
2022-10-11T07:32:00.465Z,13.38
2022-10-11T07:33:00.832Z,13.32
2022-10-11T07:34:00.946Z,13.30
2022-10-11T07:35:01.180Z,13.27
2022-10-11T07:36:01.510Z,13.27
2022-10-11T07:37:01.794Z,13.32
2022-10-11T07:38:02.029Z,13.29
2022-10-11T07:39:02.307Z,13.30
2022-10-11T07:40:02.554Z,13.32
2022-10-11T07:41:02.814Z,13.29
2022-10-11T07:42:03.115Z,13.29
2022-10-11T07:43:03.385Z,13.33
2022-10-11T07:44:03.657Z,13.32
2022-10-11T07:45:03.967Z,13.36
2022-10-11T07:46:04.786Z,13.37
2022-10-11T07:47:07.784Z,13.37
2022-10-11T07:48:05.771Z,13.32
2022-10-11T07:49:05.096Z,13.27
2022-10-11T07:50:05.304Z,13.22
2022-10-11T07:51:05.583Z,13.21
2022-10-11T07:52:05.830Z,13.20
2022-10-11T07:53:06.079Z,13.20
2022-10-11T07:54:07.532Z,13.21
2022-10-11T07:55:06.674Z,13.25
2022-10-11T07:56:07.586Z,13.32
2022-10-11T07:57:07.286Z,13.32
2022-10-11T07:58:07.568Z,13.33
2022-10-11T07:59:07.850Z,13.32
2022-10-11T08:00:08.083Z,13.30
2022-10-11T08:01:08.432Z,13.33
2022-10-11T08:02:08.739Z,13.30
2022-10-11T08:03:08.992Z,13.36
2022-10-11T08:04:09.289Z,13.38
2022-10-11T08:05:09.512Z,13.38
2022-10-11T08:06:10.264Z,13.37
2022-10-11T08:07:10.116Z,13.36
2022-10-11T08:08:10.343Z,13.36
2022-10-11T08:09:10.611Z,13.32
2022-10-11T08:10:10.885Z,13.40
2022-10-11T08:11:11.152Z,13.36
2022-10-11T08:12:11.438Z,13.41
2022-10-11T08:13:11.715Z,13.41
2022-10-11T08:14:12.019Z,13.41
2022-10-11T08:15:12.221Z,13.46
2022-10-11T08:16:12.455Z,13.44
2022-10-11T08:17:12.749Z,13.41
2022-10-11T08:18:13.015Z,13.38
2022-10-11T08:19:13.236Z,13.41
2022-10-11T08:20:13.531Z,13.47
2022-10-11T08:21:13.825Z,13.49
2022-10-11T08:22:14.131Z,13.54
2022-10-11T08:23:14.375Z,13.52
2022-10-11T08:24:14.653Z,13.49
2022-10-11T08:25:14.906Z,13.51
2022-10-11T08:26:15.195Z,13.56
2022-10-11T08:27:15.430Z,13.59
2022-10-11T08:28:15.863Z,13.62
2022-10-11T08:29:15.948Z,13.62
2022-10-11T08:30:16.196Z,13.63
2022-10-11T08:31:16.530Z,13.67
2022-10-11T08:32:16.754Z,13.74
2022-10-11T08:33:17.018Z,13.83
2022-10-11T08:34:17.256Z,13.84
2022-10-11T08:35:17.654Z,13.88
2022-10-11T08:36:17.769Z,13.94
2022-10-11T08:37:18.007Z,13.98
2022-10-11T08:38:18.268Z,14.01
2022-10-11T08:39:18.573Z,14.07
2022-10-11T08:40:18.859Z,14.06
2022-10-11T08:41:19.123Z,14.06
2022-10-11T08:42:19.407Z,13.99
2022-10-11T08:43:19.659Z,13.94
2022-10-11T08:44:19.874Z,13.95
2022-10-11T08:45:20.111Z,13.98
2022-10-11T08:46:20.432Z,14.09
2022-10-11T08:47:20.741Z,14.12
2022-10-11T08:48:20.945Z,14.17
2022-10-11T08:49:21.240Z,14.24
2022-10-11T08:50:21.596Z,14.28
2022-10-11T08:51:21.799Z,14.29
2022-10-11T08:52:22.075Z,14.35
2022-10-11T08:53:22.418Z,14.37
2022-10-11T08:54:22.595Z,14.34
2022-10-11T08:55:22.875Z,14.24
2022-10-11T08:56:23.125Z,14.25
2022-10-11T08:57:23.423Z,14.24
2022-10-11T08:58:23.726Z,14.31
2022-10-11T08:59:23.963Z,14.32
2022-10-11T09:00:24.192Z,14.32
2022-10-11T09:01:24.540Z,14.31
2022-10-11T09:02:24.803Z,14.34
2022-10-11T09:03:25.013Z,14.37
2022-10-11T09:04:25.300Z,14.38
2022-10-11T09:05:25.550Z,14.43
2022-10-11T09:06:25.868Z,14.47
2022-10-11T09:07:26.936Z,14.54
2022-10-11T09:08:26.312Z,14.47
2022-10-11T09:09:26.596Z,14.47
2022-10-11T09:10:26.826Z,14.44
2022-10-11T09:11:27.263Z,14.43
2022-10-11T09:12:31.943Z,14.42
2022-10-11T09:13:28.625Z,14.44
2022-10-11T09:14:27.912Z,14.39
2022-10-11T09:15:28.183Z,14.38
2022-10-11T09:16:28.493Z,14.43
2022-10-11T09:17:28.698Z,14.39
2022-10-11T09:18:29.027Z,14.39
2022-10-11T09:19:29.317Z,14.46
2022-10-11T09:20:29.540Z,14.56
2022-10-11T09:21:29.947Z,14.64
2022-10-11T09:22:30.826Z,14.61
2022-10-11T09:23:30.436Z,14.62
2022-10-11T09:24:30.682Z,14.65
2022-10-11T09:25:30.946Z,14.69
2022-10-11T09:26:31.257Z,14.68
2022-10-11T09:27:50.331Z,14.74
2022-10-11T09:28:32.901Z,14.84
2022-10-11T09:29:32.139Z,14.95
2022-10-11T09:30:32.357Z,15.11
2022-10-11T09:31:32.577Z,15.21
2022-10-11T09:32:32.828Z,15.26
2022-10-11T09:33:33.096Z,15.28
2022-10-11T09:34:33.826Z,15.39
2022-10-11T09:35:33.684Z,15.46
2022-10-11T09:36:33.959Z,15.49
2022-10-11T09:37:34.211Z,15.56
2022-10-11T09:38:34.450Z,15.48
2022-10-11T09:39:34.701Z,15.52
2022-10-11T09:40:35.003Z,15.56
2022-10-11T09:41:35.219Z,15.63
2022-10-11T09:42:35.471Z,15.70
2022-10-11T09:43:35.773Z,15.82
2022-10-11T09:44:35.965Z,15.88
2022-10-11T09:45:36.535Z,15.78
2022-10-11T09:46:36.449Z,15.85
2022-10-11T09:47:36.680Z,15.89
2022-10-11T09:48:37.071Z,15.84
2022-10-11T09:49:37.185Z,15.79
2022-10-11T09:50:37.443Z,15.63
2022-10-11T09:51:37.711Z,15.60
2022-10-11T09:52:37.984Z,15.60
2022-10-11T09:53:38.277Z,15.60
2022-10-11T09:54:38.545Z,15.52
2022-10-11T09:55:38.767Z,15.56
2022-10-11T09:56:39.017Z,15.60
2022-10-11T09:57:39.261Z,15.60
2022-10-11T09:58:39.564Z,15.68
2022-10-11T09:59:39.813Z,15.66
2022-10-11T10:00:40.049Z,15.72
2022-10-11T10:01:40.347Z,15.76
2022-10-11T10:02:40.600Z,15.82
2022-10-11T10:03:40.898Z,15.86
2022-10-11T10:04:41.166Z,15.94
2022-10-11T10:05:41.394Z,16.04
2022-10-11T10:06:41.659Z,16.18
2022-10-11T10:07:41.884Z,16.55
2022-10-11T10:08:42.136Z,16.88
2022-10-11T10:09:42.871Z,16.96
2022-10-11T10:10:42.704Z,17.06
2022-10-11T10:11:42.930Z,17.18
2022-10-11T10:12:43.234Z,17.07
2022-10-11T10:13:43.468Z,16.86
2022-10-11T10:14:43.709Z,16.83
2022-10-11T10:15:44.002Z,16.78
2022-10-11T10:16:44.358Z,16.74
2022-10-11T10:17:44.607Z,16.75
2022-10-11T10:18:44.930Z,16.96
2022-10-11T10:19:45.492Z,17.00
2022-10-11T10:20:45.423Z,17.23
2022-10-11T10:21:45.713Z,17.74
2022-10-11T10:22:46.034Z,18.47
2022-10-11T10:23:46.259Z,19.20
2022-10-11T10:24:46.531Z,19.76
2022-10-11T10:25:46.821Z,20.34
2022-10-11T10:26:47.155Z,21.01
2022-10-11T10:27:47.369Z,21.63
2022-10-11T10:28:47.792Z,21.85
2022-10-11T10:29:48.024Z,22.22
2022-10-11T10:30:48.160Z,22.64
2022-10-11T10:32:12.864Z,22.97
2022-10-11T10:32:49.775Z,23.40
2022-10-11T10:33:49.044Z,23.79
2022-10-11T10:34:49.321Z,23.86
2022-10-11T10:35:49.697Z,24.19
2022-10-11T10:36:49.902Z,24.23
2022-10-11T10:37:50.257Z,24.38
2022-10-11T10:38:52.277Z,24.38
2022-10-11T10:39:50.819Z,24.10
2022-10-11T10:40:51.039Z,24.02
2022-10-11T10:41:51.330Z,24.49
2022-10-11T10:42:51.632Z,24.71
2022-10-11T10:43:51.919Z,24.68
2022-10-11T10:44:52.153Z,24.91
2022-10-11T10:45:52.414Z,25.09
2022-10-11T10:46:52.692Z,25.31
2022-10-11T10:47:53.022Z,25.30
2022-10-11T10:49:55.177Z,25.13
2022-10-11T10:50:53.726Z,25.22
2022-10-11T10:51:53.989Z,25.30
2022-10-11T10:52:54.240Z,24.64
2022-10-11T10:53:55.413Z,24.08
2022-10-11T10:54:54.805Z,24.34
2022-10-11T10:55:55.059Z,24.67
2022-10-11T10:56:55.335Z,24.91
2022-10-11T10:57:55.620Z,24.76
2022-10-11T10:58:55.950Z,24.38
2022-10-11T10:59:56.198Z,24.22
2022-10-11T11:00:56.465Z,24.08
2022-10-11T11:01:56.748Z,24.17
2022-10-11T11:02:57.169Z,24.38
2022-10-11T11:03:57.317Z,24.54
2022-10-11T11:05:57.878Z,24.41
2022-10-11T11:06:58.137Z,24.10
2022-10-11T11:07:58.478Z,24.07
2022-10-11T11:08:58.694Z,24.07
2022-10-11T11:09:58.939Z,24.27
2022-10-11T11:10:59.190Z,24.35
2022-10-11T11:11:59.467Z,24.00
2022-10-11T11:12:59.738Z,24.19
2022-10-11T11:14:00.025Z,24.34
2022-10-11T11:15:00.308Z,24.23
2022-10-11T11:16:00.569Z,24.23
2022-10-11T11:17:00.877Z,24.38
2022-10-11T11:18:01.153Z,24.23
2022-10-11T11:19:01.861Z,23.61
2022-10-11T11:20:01.597Z,23.61
2022-10-11T11:21:01.896Z,23.80
2022-10-11T11:22:02.162Z,24.05
2022-10-11T11:23:02.438Z,24.17
2022-10-11T11:24:02.748Z,24.32
2022-10-11T11:25:02.975Z,24.29
2022-10-11T11:26:03.578Z,24.61
2022-10-11T11:27:04.162Z,24.76
2022-10-11T11:28:03.784Z,25.05
2022-10-11T11:29:04.082Z,25.46
2022-10-11T11:30:04.347Z,25.68
2022-10-11T11:31:04.988Z,25.82
2022-10-11T11:32:04.939Z,26.09
2022-10-11T11:33:05.194Z,26.11
2022-10-11T11:34:05.455Z,26.21
2022-10-11T11:35:05.731Z,26.36
2022-10-11T11:36:07.270Z,26.11
2022-10-11T11:37:06.355Z,25.97
2022-10-11T11:38:06.774Z,25.89
2022-10-11T11:39:07.063Z,25.89
2022-10-11T11:40:07.261Z,25.90
2022-10-11T11:41:08.063Z,25.62
2022-10-11T11:42:07.865Z,25.57
2022-10-11T11:43:08.166Z,25.20
2022-10-11T11:44:08.394Z,25.12
2022-10-11T11:45:08.796Z,25.09
2022-10-11T11:46:08.915Z,24.94
2022-10-11T11:47:09.179Z,24.88
2022-10-11T11:48:09.518Z,25.06
2022-10-11T11:49:12.965Z,24.76
2022-10-11T11:50:10.111Z,24.67
2022-10-11T11:51:10.406Z,25.00
2022-10-11T11:52:10.653Z,24.76
2022-10-11T11:53:10.918Z,24.60
2022-10-11T11:54:11.186Z,24.44
2022-10-11T11:55:12.002Z,24.22
2022-10-11T11:56:11.704Z,24.37
2022-10-11T11:57:11.973Z,24.31
2022-10-11T11:58:12.222Z,24.27
2022-10-11T11:59:12.466Z,24.53
2022-10-11T12:00:12.794Z,24.22
2022-10-11T12:01:13.150Z,24.31
2022-10-11T12:02:13.403Z,24.44
2022-10-11T12:03:13.713Z,24.52
2022-10-11T12:04:14.050Z,24.57
2022-10-11T12:05:14.219Z,24.76
2022-10-11T12:06:14.980Z,25.01
2022-10-11T12:07:17.071Z,25.28
2022-10-11T12:08:15.118Z,25.50
2022-10-11T12:09:15.438Z,25.68
2022-10-11T12:10:15.691Z,25.50
2022-10-11T12:11:15.944Z,25.15
2022-10-11T12:12:16.246Z,24.68
2022-10-11T12:13:16.509Z,24.39
2022-10-11T12:14:16.762Z,24.23
2022-10-11T12:15:17.063Z,24.23
2022-10-11T12:16:17.369Z,24.14
2022-10-11T12:17:17.701Z,24.01
2022-10-11T12:18:17.936Z,24.32
2022-10-11T12:19:18.227Z,24.69
2022-10-11T12:20:18.570Z,24.97
2022-10-11T12:21:18.782Z,25.13
2022-10-11T12:22:19.067Z,25.01
2022-10-11T12:23:20.164Z,24.80
2022-10-11T12:24:19.594Z,24.68
2022-10-11T12:25:19.871Z,24.53
2022-10-11T12:26:20.172Z,24.50
2022-10-11T12:27:20.446Z,24.56
2022-10-11T12:28:20.732Z,24.39
2022-10-11T12:29:25.899Z,24.07
2022-10-11T12:30:22.258Z,24.10
2022-10-11T12:31:21.552Z,24.20
2022-10-11T12:32:21.873Z,24.17
2022-10-11T12:33:22.073Z,24.08
2022-10-11T12:34:22.336Z,23.97
2022-10-11T12:35:22.584Z,23.87
2022-10-11T12:36:22.920Z,23.71
2022-10-11T12:37:23.200Z,23.75
2022-10-11T12:38:23.395Z,23.95
2022-10-11T12:39:23.679Z,24.01
2022-10-11T12:40:23.920Z,24.19
2022-10-11T12:41:24.231Z,24.16
2022-10-11T12:42:24.592Z,24.22
2022-10-11T12:43:24.735Z,24.08
2022-10-11T12:44:24.952Z,23.90
2022-10-11T12:45:25.243Z,23.67
2022-10-11T12:46:25.500Z,23.72
2022-10-11T12:47:25.829Z,23.57
2022-10-11T12:48:30.223Z,23.23
2022-10-11T12:49:27.356Z,23.08
2022-10-11T12:50:27.533Z,23.11
2022-10-11T12:51:26.942Z,23.17
2022-10-11T12:52:27.248Z,23.40
2022-10-11T12:53:27.497Z,23.60
2022-10-11T12:54:31.060Z,23.43
2022-10-11T12:55:29.069Z,23.52
2022-10-11T12:56:28.830Z,23.29
2022-10-11T12:57:28.673Z,23.29
2022-10-11T12:58:28.957Z,22.93